RYR496C LEZL-GCFV
Flight info
| Callsign | RYR496C |
|---|---|
| Flight time | N/A |
| Altitude | 35000 |
| Route | CLANA N857 KORNO UN857 TERTO |
| Aircraft | B738/M-SDE3FGILRWY/SB1 |
Departure
| Time | 2026-05-04 19:12 |
|---|---|
| Airport | Seville Airport (LEZL) |
Arrival
| Time | N/A |
|---|---|
| Airport | Fuerteventura Airport (GCFV) |
| Time | Latitude | Longitude | Altitude | Speed | Heading |
|---|---|---|---|---|---|
| 2026-05-04 18:44 | 37.42184 | -5.89983 | 94 ft | 0 kts | 315° |
| 2026-05-04 19:00 | 37.42184 | -5.89982 | 93 ft | 0 kts | 315° |
| 2026-05-04 19:01 | 37.42182 | -5.89980 | 93 ft | 2 kts | 315° |
| 2026-05-04 19:01 | 37.42171 | -5.89967 | 94 ft | 2 kts | 315° |
| 2026-05-04 19:01 | 37.42161 | -5.89953 | 94 ft | 2 kts | 315° |
| 2026-05-04 19:02 | 37.42150 | -5.89940 | 94 ft | 2 kts | 315° |
| 2026-05-04 19:02 | 37.42140 | -5.89927 | 94 ft | 1 kts | 314° |
| 2026-05-04 19:02 | 37.42131 | -5.89923 | 94 ft | 1 kts | 18° |
| 2026-05-04 19:02 | 37.42125 | -5.89927 | 94 ft | 1 kts | 52° |
| 2026-05-04 19:03 | 37.42122 | -5.89932 | 94 ft | 0 kts | 45° |
| 2026-05-04 19:05 | 37.42123 | -5.89931 | 94 ft | 2 kts | 45° |
| 2026-05-04 19:05 | 37.42159 | -5.89888 | 94 ft | 9 kts | 44° |
| 2026-05-04 19:05 | 37.42225 | -5.89807 | 94 ft | 14 kts | 44° |
| 2026-05-04 19:05 | 37.42249 | -5.89706 | 95 ft | 12 kts | 121° |
| 2026-05-04 19:06 | 37.42194 | -5.89629 | 95 ft | 11 kts | 134° |
| 2026-05-04 19:06 | 37.42140 | -5.89560 | 95 ft | 11 kts | 134° |
| 2026-05-04 19:06 | 37.42086 | -5.89491 | 95 ft | 10 kts | 134° |
| 2026-05-04 19:06 | 37.42028 | -5.89417 | 95 ft | 11 kts | 134° |
| 2026-05-04 19:07 | 37.41984 | -5.89330 | 96 ft | 11 kts | 99° |
| 2026-05-04 19:07 | 37.41983 | -5.89214 | 96 ft | 13 kts | 90° |
| 2026-05-04 19:07 | 37.41983 | -5.89099 | 97 ft | 12 kts | 90° |
| 2026-05-04 19:07 | 37.41982 | -5.88982 | 97 ft | 13 kts | 89° |
| 2026-05-04 19:08 | 37.41985 | -5.88851 | 98 ft | 16 kts | 90° |
| 2026-05-04 19:08 | 37.41984 | -5.88699 | 99 ft | 17 kts | 89° |
| 2026-05-04 19:08 | 37.41985 | -5.88534 | 100 ft | 20 kts | 89° |
| 2026-05-04 19:08 | 37.41985 | -5.88365 | 101 ft | 18 kts | 90° |
| 2026-05-04 19:09 | 37.41985 | -5.88208 | 102 ft | 17 kts | 90° |
| 2026-05-04 19:09 | 37.41986 | -5.88066 | 103 ft | 15 kts | 89° |
| 2026-05-04 19:09 | 37.41988 | -5.87913 | 104 ft | 21 kts | 89° |
| 2026-05-04 19:09 | 37.41988 | -5.87732 | 106 ft | 19 kts | 89° |
| 2026-05-04 19:10 | 37.41987 | -5.87569 | 107 ft | 17 kts | 98° |
| 2026-05-04 19:10 | 37.41937 | -5.87439 | 108 ft | 15 kts | 148° |
| 2026-05-04 19:10 | 37.41841 | -5.87446 | 108 ft | 13 kts | 217° |
| 2026-05-04 19:10 | 37.41798 | -5.87548 | 108 ft | 13 kts | 266° |
| 2026-05-04 19:11 | 37.41795 | -5.87707 | 106 ft | 28 kts | 270° |
| 2026-05-04 19:11 | 37.41791 | -5.88209 | 102 ft | 90 kts | 269° |
| 2026-05-04 19:11 | 37.41792 | -5.89245 | 96 ft | 146 kts | 269° |
| 2026-05-04 19:11 | 37.41814 | -5.90665 | 382 ft | 167 kts | 269° |
| 2026-05-04 19:12 | 37.41926 | -5.92120 | 1028 ft | 171 kts | 276° |
| 2026-05-04 19:12 | 37.42367 | -5.95193 | 2111 ft | 189 kts | 285° |
| 2026-05-04 19:12 | 37.42720 | -5.96820 | 2530 ft | 202 kts | 286° |
| 2026-05-04 19:13 | 37.43102 | -5.98578 | 2952 ft | 214 kts | 287° |
| 2026-05-04 19:13 | 37.43593 | -6.00420 | 3333 ft | 230 kts | 291° |
| 2026-05-04 19:13 | 37.43981 | -6.02421 | 3730 ft | 247 kts | 275° |
| 2026-05-04 19:13 | 37.43620 | -6.04580 | 4214 ft | 262 kts | 243° |
| 2026-05-04 19:14 | 37.42361 | -6.06233 | 4817 ft | 272 kts | 214° |
| 2026-05-04 19:14 | 37.40556 | -6.07068 | 5450 ft | 279 kts | 189° |
| 2026-05-04 19:14 | 37.38623 | -6.07095 | 6124 ft | 282 kts | 177° |
| 2026-05-04 19:14 | 37.36668 | -6.07119 | 6799 ft | 283 kts | 194° |
| 2026-05-04 19:15 | 37.34894 | -6.08085 | 7595 ft | 277 kts | 215° |
| 2026-05-04 19:15 | 37.33328 | -6.09490 | 8348 ft | 277 kts | 219° |
| 2026-05-04 19:15 | 37.31782 | -6.10902 | 9156 ft | 276 kts | 218° |
| 2026-05-04 19:15 | 37.30199 | -6.12242 | 9927 ft | 277 kts | 216° |
| 2026-05-04 19:16 | 37.28571 | -6.13540 | 10517 ft | 285 kts | 215° |
| 2026-05-04 19:16 | 37.26827 | -6.14895 | 10943 ft | 300 kts | 215° |
| 2026-05-04 19:16 | 37.25003 | -6.16296 | 11346 ft | 314 kts | 215° |
| 2026-05-04 19:16 | 37.23132 | -6.17730 | 11984 ft | 321 kts | 215° |
| 2026-05-04 19:17 | 37.21226 | -6.19189 | 12703 ft | 324 kts | 215° |
| 2026-05-04 19:17 | 37.19300 | -6.20665 | 13455 ft | 327 kts | 215° |
| 2026-05-04 19:17 | 37.17351 | -6.22161 | 14220 ft | 329 kts | 216° |
| 2026-05-04 19:17 | 37.15406 | -6.23654 | 14930 ft | 334 kts | 216° |
| 2026-05-04 19:18 | 37.13406 | -6.25189 | 15730 ft | 335 kts | 216° |
| 2026-05-04 19:18 | 37.11422 | -6.26710 | 16455 ft | 338 kts | 216° |
| 2026-05-04 19:18 | 37.09404 | -6.28257 | 17129 ft | 342 kts | 216° |
| 2026-05-04 19:18 | 37.07385 | -6.29804 | 17840 ft | 345 kts | 216° |
| 2026-05-04 19:19 | 37.05340 | -6.31370 | 18478 ft | 348 kts | 216° |
| 2026-05-04 19:19 | 37.03261 | -6.32960 | 19121 ft | 352 kts | 216° |
| 2026-05-04 19:19 | 37.01178 | -6.34553 | 19714 ft | 356 kts | 216° |
| 2026-05-04 19:19 | 36.99046 | -6.36181 | 20326 ft | 359 kts | 216° |
| 2026-05-04 19:20 | 36.96923 | -6.37800 | 20964 ft | 361 kts | 217° |
| 2026-05-04 19:20 | 36.94761 | -6.39449 | 21542 ft | 364 kts | 217° |
| 2026-05-04 19:20 | 36.92606 | -6.41091 | 22117 ft | 367 kts | 217° |
| 2026-05-04 19:20 | 36.90415 | -6.42760 | 22649 ft | 370 kts | 217° |
| 2026-05-04 19:21 | 36.88216 | -6.44435 | 23213 ft | 372 kts | 217° |
| 2026-05-04 19:21 | 36.85990 | -6.46127 | 23762 ft | 374 kts | 217° |
| 2026-05-04 19:21 | 36.83752 | -6.47828 | 24246 ft | 378 kts | 217° |
| 2026-05-04 19:21 | 36.81526 | -6.49520 | 24786 ft | 380 kts | 217° |
| 2026-05-04 19:22 | 36.79248 | -6.51249 | 25290 ft | 382 kts | 217° |
| 2026-05-04 19:22 | 36.76994 | -6.52959 | 25755 ft | 385 kts | 217° |
| 2026-05-04 19:22 | 36.74683 | -6.54711 | 26233 ft | 387 kts | 218° |
| 2026-05-04 19:22 | 36.72366 | -6.56466 | 26690 ft | 389 kts | 218° |
| 2026-05-04 19:23 | 36.70054 | -6.58218 | 27151 ft | 391 kts | 218° |
| 2026-05-04 19:23 | 36.67728 | -6.59978 | 27602 ft | 393 kts | 218° |
| 2026-05-04 19:23 | 36.65389 | -6.61747 | 28008 ft | 396 kts | 218° |
| 2026-05-04 19:23 | 36.63021 | -6.63535 | 28455 ft | 397 kts | 218° |
| 2026-05-04 19:24 | 36.60678 | -6.65304 | 28878 ft | 399 kts | 217° |
| 2026-05-04 19:24 | 36.58303 | -6.67096 | 29276 ft | 401 kts | 217° |
| 2026-05-04 19:24 | 36.55879 | -6.68923 | 29711 ft | 403 kts | 217° |
| 2026-05-04 19:24 | 36.53475 | -6.70734 | 30065 ft | 406 kts | 218° |
| 2026-05-04 19:25 | 36.51107 | -6.72586 | 30506 ft | 405 kts | 220° |
| 2026-05-04 19:25 | 36.48812 | -6.74653 | 30867 ft | 404 kts | 223° |
| 2026-05-04 19:25 | 36.46643 | -6.76810 | 31286 ft | 404 kts | 225° |
| 2026-05-04 19:25 | 36.44482 | -6.79055 | 31642 ft | 406 kts | 226° |
| 2026-05-04 19:26 | 36.42310 | -6.81344 | 32008 ft | 407 kts | 226° |
| 2026-05-04 19:26 | 36.40128 | -6.83642 | 32348 ft | 409 kts | 226° |
| 2026-05-04 19:26 | 36.37956 | -6.85919 | 32702 ft | 411 kts | 226° |
| 2026-05-04 19:26 | 36.35764 | -6.88203 | 33016 ft | 413 kts | 225° |
| 2026-05-04 19:27 | 36.33564 | -6.90483 | 33353 ft | 415 kts | 225° |
| 2026-05-04 19:27 | 36.31338 | -6.92780 | 33642 ft | 417 kts | 225° |
| 2026-05-04 19:27 | 36.29105 | -6.95077 | 33930 ft | 420 kts | 226° |
| 2026-05-04 19:27 | 36.26833 | -6.97411 | 34178 ft | 421 kts | 225° |
| 2026-05-04 19:28 | 36.24580 | -6.99718 | 34502 ft | 421 kts | 225° |
| 2026-05-04 19:28 | 36.22325 | -7.02024 | 34758 ft | 421 kts | 225° |
| 2026-05-04 19:28 | 36.20094 | -7.04302 | 35026 ft | 418 kts | 225° |
| 2026-05-04 19:28 | 36.17853 | -7.06583 | 35042 ft | 406 kts | 225° |
| 2026-05-04 19:29 | 36.15715 | -7.08750 | 35047 ft | 389 kts | 225° |
| 2026-05-04 19:29 | 36.13655 | -7.10837 | 35049 ft | 376 kts | 226° |
| 2026-05-04 19:29 | 36.11663 | -7.12863 | 35057 ft | 374 kts | 226° |
| 2026-05-04 19:30 | 36.07590 | -7.17040 | 35056 ft | 383 kts | 226° |
| 2026-05-04 19:30 | 36.03503 | -7.21210 | 35058 ft | 383 kts | 226° |
| 2026-05-04 19:31 | 35.99324 | -7.25466 | 35060 ft | 395 kts | 226° |
| 2026-05-04 19:31 | 35.95031 | -7.29827 | 35068 ft | 406 kts | 225° |
| 2026-05-04 19:32 | 35.90595 | -7.34323 | 35075 ft | 417 kts | 225° |
| 2026-05-04 19:32 | 35.86071 | -7.38889 | 35079 ft | 419 kts | 225° |
| 2026-05-04 19:33 | 35.81593 | -7.43392 | 35080 ft | 418 kts | 225° |
| 2026-05-04 19:33 | 35.77068 | -7.47909 | 35084 ft | 419 kts | 225° |
| 2026-05-04 19:34 | 35.72563 | -7.52400 | 35083 ft | 418 kts | 225° |
| 2026-05-04 19:34 | 35.68023 | -7.56931 | 35085 ft | 418 kts | 225° |
| 2026-05-04 19:35 | 35.63510 | -7.61409 | 35085 ft | 420 kts | 225° |
| 2026-05-04 19:35 | 35.58954 | -7.65925 | 35086 ft | 419 kts | 224° |
| 2026-05-04 19:36 | 35.54394 | -7.70442 | 35088 ft | 419 kts | 224° |
| 2026-05-04 19:36 | 35.49850 | -7.74941 | 35089 ft | 421 kts | 224° |
| 2026-05-04 19:37 | 35.45290 | -7.79447 | 35089 ft | 421 kts | 224° |
| 2026-05-04 19:37 | 35.40761 | -7.83917 | 35089 ft | 420 kts | 224° |
| 2026-05-04 19:38 | 35.36241 | -7.88419 | 35089 ft | 421 kts | 224° |
| 2026-05-04 19:38 | 35.31713 | -7.92957 | 35091 ft | 422 kts | 225° |
| 2026-05-04 19:39 | 35.27169 | -7.97501 | 35091 ft | 421 kts | 224° |
| 2026-05-04 19:39 | 35.22623 | -8.02036 | 35091 ft | 422 kts | 224° |
| 2026-05-04 19:40 | 35.18073 | -8.06560 | 35092 ft | 421 kts | 225° |
| 2026-05-04 19:40 | 35.13535 | -8.11069 | 35091 ft | 421 kts | 224° |
| 2026-05-04 19:41 | 35.08998 | -8.15569 | 35091 ft | 421 kts | 224° |
| 2026-05-04 19:41 | 35.04465 | -8.20058 | 35092 ft | 422 kts | 224° |
| 2026-05-04 19:42 | 34.99912 | -8.24561 | 35089 ft | 422 kts | 224° |
| 2026-05-04 19:42 | 34.95337 | -8.29078 | 35090 ft | 422 kts | 224° |
| 2026-05-04 19:43 | 34.90764 | -8.33586 | 35091 ft | 422 kts | 224° |
| 2026-05-04 19:43 | 34.86223 | -8.38056 | 35091 ft | 421 kts | 224° |
| 2026-05-04 19:44 | 34.81684 | -8.42518 | 35089 ft | 422 kts | 224° |
| 2026-05-04 19:44 | 34.77094 | -8.47025 | 35091 ft | 421 kts | 224° |
| 2026-05-04 19:45 | 34.72551 | -8.51478 | 35089 ft | 423 kts | 224° |
| 2026-05-04 19:45 | 34.67970 | -8.55960 | 35092 ft | 422 kts | 224° |
| 2026-05-04 19:46 | 34.63425 | -8.60402 | 35091 ft | 422 kts | 224° |
| 2026-05-04 19:46 | 34.58853 | -8.64865 | 35093 ft | 423 kts | 224° |
| 2026-05-04 19:47 | 34.54262 | -8.69337 | 35090 ft | 424 kts | 223° |
| 2026-05-04 19:47 | 34.49644 | -8.73830 | 35090 ft | 422 kts | 223° |
| 2026-05-04 19:48 | 34.45066 | -8.78276 | 35090 ft | 423 kts | 223° |
| 2026-05-04 19:48 | 34.40445 | -8.82745 | 35091 ft | 422 kts | 223° |
| 2026-05-04 19:49 | 34.35827 | -8.87181 | 35091 ft | 422 kts | 223° |
| 2026-05-04 19:49 | 34.31224 | -8.91596 | 35089 ft | 423 kts | 223° |
| 2026-05-04 19:50 | 34.26601 | -8.96028 | 35092 ft | 424 kts | 223° |
| 2026-05-04 19:50 | 34.22020 | -9.00412 | 35091 ft | 420 kts | 223° |
| 2026-05-04 19:51 | 34.17442 | -9.04789 | 35089 ft | 422 kts | 223° |
| 2026-05-04 19:51 | 34.12844 | -9.09181 | 35092 ft | 422 kts | 223° |
| 2026-05-04 19:52 | 34.08242 | -9.13568 | 35093 ft | 421 kts | 222° |
| 2026-05-04 19:52 | 34.03641 | -9.17948 | 35097 ft | 422 kts | 223° |
| 2026-05-04 19:53 | 33.99045 | -9.22317 | 35091 ft | 422 kts | 223° |
| 2026-05-04 19:53 | 33.94425 | -9.26702 | 35093 ft | 422 kts | 222° |
| 2026-05-04 19:54 | 33.89800 | -9.31087 | 35096 ft | 423 kts | 222° |
| 2026-05-04 19:54 | 33.85209 | -9.35434 | 35087 ft | 422 kts | 222° |
| 2026-05-04 19:55 | 33.80585 | -9.39807 | 35021 ft | 421 kts | 223° |
| 2026-05-04 19:55 | 33.78277 | -9.41984 | 35270 ft | 422 kts | 223° |
| 2026-05-04 19:55 | 33.75969 | -9.44165 | 35088 ft | 422 kts | 223° |
| 2026-05-04 19:56 | 33.71368 | -9.48501 | 35092 ft | 422 kts | 223° |
| 2026-05-04 19:56 | 33.66763 | -9.52836 | 35093 ft | 421 kts | 222° |
| 2026-05-04 19:57 | 33.62170 | -9.57152 | 35091 ft | 421 kts | 223° |
| 2026-05-04 19:57 | 33.57555 | -9.61484 | 35103 ft | 422 kts | 223° |
| 2026-05-04 19:58 | 33.52919 | -9.65830 | 35095 ft | 421 kts | 222° |
| 2026-05-04 19:58 | 33.48331 | -9.70124 | 35091 ft | 421 kts | 222° |
| 2026-05-04 19:59 | 33.43719 | -9.74437 | 35098 ft | 420 kts | 222° |
| 2026-05-04 19:59 | 33.39114 | -9.78737 | 35094 ft | 419 kts | 222° |
| 2026-05-04 20:00 | 33.34533 | -9.83009 | 35095 ft | 421 kts | 222° |
| 2026-05-04 20:00 | 33.29924 | -9.87299 | 35097 ft | 420 kts | 222° |
| 2026-05-04 20:01 | 33.25290 | -9.91606 | 35099 ft | 419 kts | 222° |
| 2026-05-04 20:01 | 33.20696 | -9.95870 | 35090 ft | 420 kts | 222° |
| 2026-05-04 20:02 | 33.16098 | -10.00133 | 35097 ft | 419 kts | 222° |
| 2026-05-04 20:02 | 33.11498 | -10.04392 | 35087 ft | 418 kts | 222° |
| 2026-05-04 20:03 | 33.06886 | -10.08653 | 35094 ft | 419 kts | 223° |
| 2026-05-04 20:03 | 33.02308 | -10.12880 | 35084 ft | 417 kts | 222° |
| 2026-05-04 20:04 | 32.97711 | -10.17117 | 35090 ft | 419 kts | 223° |
| 2026-05-04 20:04 | 32.93119 | -10.21340 | 35089 ft | 417 kts | 223° |
| 2026-05-04 20:05 | 32.88493 | -10.25588 | 35087 ft | 417 kts | 222° |
| 2026-05-04 20:05 | 32.83908 | -10.29793 | 35092 ft | 417 kts | 222° |
| 2026-05-04 20:06 | 32.79314 | -10.34001 | 35089 ft | 416 kts | 222° |
| 2026-05-04 20:06 | 32.74749 | -10.38176 | 35091 ft | 416 kts | 222° |
| 2026-05-04 20:07 | 32.70169 | -10.42358 | 35093 ft | 417 kts | 223° |
| 2026-05-04 20:07 | 32.65581 | -10.46546 | 35093 ft | 417 kts | 222° |
| 2026-05-04 20:08 | 32.60992 | -10.50727 | 35089 ft | 416 kts | 222° |
| 2026-05-04 20:08 | 32.56411 | -10.54894 | 35090 ft | 416 kts | 223° |
| 2026-05-04 20:09 | 32.51821 | -10.59065 | 35087 ft | 413 kts | 222° |
| 2026-05-04 20:09 | 32.47250 | -10.63212 | 35085 ft | 415 kts | 223° |
| 2026-05-04 20:10 | 32.42661 | -10.67372 | 35087 ft | 415 kts | 222° |
| 2026-05-04 20:10 | 32.38084 | -10.71514 | 35084 ft | 413 kts | 222° |
| 2026-05-04 20:11 | 32.33526 | -10.75632 | 35083 ft | 414 kts | 222° |
| 2026-05-04 20:11 | 32.28970 | -10.79742 | 35081 ft | 413 kts | 222° |
| 2026-05-04 20:12 | 32.24381 | -10.83879 | 35079 ft | 414 kts | 222° |
| 2026-05-04 20:12 | 32.19824 | -10.87981 | 35076 ft | 411 kts | 222° |
| 2026-05-04 20:13 | 32.15265 | -10.92080 | 35074 ft | 412 kts | 222° |
| 2026-05-04 20:13 | 32.10719 | -10.96164 | 35072 ft | 411 kts | 222° |
| 2026-05-04 20:14 | 32.06154 | -11.00260 | 35075 ft | 411 kts | 222° |
| 2026-05-04 20:14 | 32.01610 | -11.04331 | 35066 ft | 410 kts | 222° |
| 2026-05-04 20:15 | 31.97069 | -11.08392 | 35071 ft | 410 kts | 222° |
| 2026-05-04 20:15 | 31.92527 | -11.12450 | 35069 ft | 409 kts | 222° |
| 2026-05-04 20:16 | 31.87981 | -11.16507 | 35069 ft | 411 kts | 222° |
| 2026-05-04 20:16 | 31.83452 | -11.20542 | 35072 ft | 410 kts | 222° |
| 2026-05-04 20:17 | 31.78924 | -11.24573 | 35068 ft | 406 kts | 222° |
| 2026-05-04 20:17 | 31.74382 | -11.28610 | 35067 ft | 408 kts | 222° |
| 2026-05-04 20:18 | 31.69891 | -11.32612 | 35064 ft | 406 kts | 222° |
| 2026-05-04 20:18 | 31.65377 | -11.36639 | 35070 ft | 406 kts | 222° |
| 2026-05-04 20:19 | 31.60893 | -11.40637 | 35068 ft | 407 kts | 222° |
| 2026-05-04 20:19 | 31.56373 | -11.44655 | 35070 ft | 405 kts | 222° |
| 2026-05-04 20:20 | 31.51877 | -11.48647 | 35069 ft | 407 kts | 223° |
| 2026-05-04 20:20 | 31.47396 | -11.52619 | 35067 ft | 405 kts | 223° |
| 2026-05-04 20:21 | 31.42914 | -11.56588 | 35066 ft | 404 kts | 223° |
| 2026-05-04 20:21 | 31.36160 | -11.62560 | 35072 ft | 405 kts | 222° |
| 2026-05-04 20:22 | 31.31696 | -11.66501 | 35072 ft | 402 kts | 222° |
| 2026-05-04 20:22 | 31.27218 | -11.70450 | 35069 ft | 405 kts | 222° |
| 2026-05-04 20:23 | 31.22734 | -11.74399 | 35073 ft | 401 kts | 221° |
| 2026-05-04 20:23 | 31.18261 | -11.78334 | 35066 ft | 403 kts | 222° |
| 2026-05-04 20:24 | 31.13801 | -11.82253 | 35073 ft | 401 kts | 222° |
| 2026-05-04 20:24 | 31.09333 | -11.86177 | 35067 ft | 403 kts | 222° |
| 2026-05-04 20:25 | 31.04881 | -11.90079 | 35068 ft | 401 kts | 222° |
| 2026-05-04 20:25 | 31.00435 | -11.93971 | 35067 ft | 401 kts | 222° |
| 2026-05-04 20:26 | 30.95960 | -11.97885 | 35071 ft | 401 kts | 222° |
| 2026-05-04 20:26 | 30.91501 | -12.01779 | 35070 ft | 401 kts | 222° |
| 2026-05-04 20:27 | 30.88259 | -12.04605 | 35067 ft | 400 kts | 221° |
| 2026-05-04 20:27 | 30.83786 | -12.08505 | 35072 ft | 401 kts | 222° |
| 2026-05-04 20:28 | 30.79341 | -12.12374 | 35071 ft | 400 kts | 222° |
| 2026-05-04 20:28 | 30.74880 | -12.16252 | 35070 ft | 399 kts | 222° |
| 2026-05-04 20:29 | 30.70407 | -12.20137 | 35066 ft | 402 kts | 222° |
| 2026-05-04 20:29 | 30.65954 | -12.24001 | 35070 ft | 400 kts | 222° |
| 2026-05-04 20:30 | 30.61484 | -12.27865 | 35069 ft | 399 kts | 221° |
| 2026-05-04 20:30 | 30.56752 | -12.31350 | 35071 ft | 404 kts | 216° |
| 2026-05-04 20:31 | 30.51836 | -12.34562 | 35069 ft | 404 kts | 215° |
| 2026-05-04 20:31 | 30.46947 | -12.37739 | 35068 ft | 403 kts | 216° |
| 2026-05-04 20:32 | 30.42081 | -12.40943 | 35070 ft | 402 kts | 216° |
| 2026-05-04 20:32 | 30.37257 | -12.44140 | 35077 ft | 401 kts | 216° |
| 2026-05-04 20:33 | 30.32419 | -12.47356 | 35070 ft | 401 kts | 216° |
| 2026-05-04 20:33 | 30.27557 | -12.50588 | 35073 ft | 402 kts | 216° |
| 2026-05-04 20:34 | 30.22725 | -12.53796 | 35074 ft | 399 kts | 216° |
| 2026-05-04 20:34 | 30.17900 | -12.56994 | 35077 ft | 401 kts | 217° |
| 2026-05-04 20:35 | 30.13055 | -12.60204 | 35077 ft | 398 kts | 217° |
| 2026-05-04 20:35 | 30.08270 | -12.63372 | 35073 ft | 398 kts | 217° |
| 2026-05-04 20:36 | 30.03473 | -12.66544 | 35082 ft | 398 kts | 216° |
| 2026-05-04 20:36 | 29.98648 | -12.69730 | 35080 ft | 397 kts | 216° |
| 2026-05-04 20:37 | 29.93873 | -12.72881 | 35073 ft | 399 kts | 216° |
| 2026-05-04 20:37 | 29.89055 | -12.76054 | 35083 ft | 396 kts | 216° |
| 2026-05-04 20:38 | 29.84249 | -12.79217 | 35078 ft | 398 kts | 216° |
| 2026-05-04 20:38 | 29.79436 | -12.82380 | 35081 ft | 399 kts | 216° |
| 2026-05-04 20:39 | 29.74631 | -12.85535 | 35078 ft | 398 kts | 216° |
| 2026-05-04 20:39 | 29.69813 | -12.88695 | 35078 ft | 396 kts | 216° |
| 2026-05-04 20:40 | 29.67474 | -12.90222 | 35073 ft | 382 kts | 216° |
| 2026-05-04 20:40 | 29.65202 | -12.91698 | 35067 ft | 366 kts | 216° |
| 2026-05-04 20:40 | 29.63033 | -12.93107 | 34828 ft | 356 kts | 217° |
| 2026-05-04 20:40 | 29.60906 | -12.94495 | 34710 ft | 346 kts | 217° |
| 2026-05-04 20:41 | 29.56692 | -12.97271 | 34726 ft | 355 kts | 217° |
| 2026-05-04 20:41 | 29.52398 | -13.00095 | 34621 ft | 354 kts | 217° |
| 2026-05-04 20:42 | 29.50270 | -13.01478 | 34280 ft | 350 kts | 216° |
| 2026-05-04 20:42 | 29.48112 | -13.02887 | 33821 ft | 363 kts | 217° |
| 2026-05-04 20:42 | 29.45878 | -13.04361 | 33234 ft | 385 kts | 217° |
| 2026-05-04 20:42 | 29.43470 | -13.05953 | 32547 ft | 405 kts | 216° |
| 2026-05-04 20:43 | 29.41027 | -13.07555 | 31811 ft | 412 kts | 216° |
| 2026-05-04 20:43 | 29.38529 | -13.09180 | 31029 ft | 415 kts | 216° |
| 2026-05-04 20:43 | 29.35995 | -13.10821 | 30230 ft | 420 kts | 216° |
| 2026-05-04 20:43 | 29.33441 | -13.12473 | 29452 ft | 423 kts | 216° |
| 2026-05-04 20:44 | 29.30882 | -13.14127 | 28984 ft | 424 kts | 215° |
| 2026-05-04 20:44 | 29.28322 | -13.15785 | 28449 ft | 432 kts | 215° |
| 2026-05-04 20:44 | 29.25675 | -13.17499 | 27866 ft | 433 kts | 215° |
| 2026-05-04 20:44 | 29.23055 | -13.19194 | 27286 ft | 433 kts | 215° |
| 2026-05-04 20:45 | 29.20430 | -13.20893 | 26700 ft | 436 kts | 214° |
| 2026-05-04 20:45 | 29.17786 | -13.22604 | 26104 ft | 439 kts | 214° |
| 2026-05-04 20:45 | 29.15125 | -13.24326 | 25494 ft | 441 kts | 215° |
| 2026-05-04 20:45 | 29.12466 | -13.26045 | 24890 ft | 440 kts | 214° |
| 2026-05-04 20:46 | 29.09833 | -13.27743 | 24263 ft | 438 kts | 214° |
| 2026-05-04 20:46 | 29.07194 | -13.29444 | 23562 ft | 434 kts | 214° |
| 2026-05-04 20:46 | 29.04565 | -13.31138 | 22885 ft | 429 kts | 214° |
| 2026-05-04 20:46 | 29.01994 | -13.32794 | 22219 ft | 425 kts | 214° |
| 2026-05-04 20:47 | 28.99416 | -13.34455 | 21544 ft | 421 kts | 214° |
| 2026-05-04 20:47 | 28.96899 | -13.36077 | 20867 ft | 418 kts | 214° |
| 2026-05-04 20:47 | 28.94369 | -13.37709 | 20194 ft | 414 kts | 214° |
| 2026-05-04 20:47 | 28.91888 | -13.39307 | 19524 ft | 410 kts | 214° |
| 2026-05-04 20:48 | 28.89404 | -13.40906 | 18851 ft | 405 kts | 213° |
| 2026-05-04 20:48 | 28.86971 | -13.42473 | 18209 ft | 400 kts | 213° |
| 2026-05-04 20:48 | 28.84566 | -13.44022 | 17652 ft | 397 kts | 213° |
| 2026-05-04 20:48 | 28.82150 | -13.45499 | 17122 ft | 399 kts | 209° |
| 2026-05-04 20:49 | 28.79503 | -13.46563 | 16607 ft | 402 kts | 200° |
| 2026-05-04 20:49 | 28.76778 | -13.47265 | 16123 ft | 404 kts | 196° |
| 2026-05-04 20:49 | 28.74025 | -13.47811 | 15618 ft | 402 kts | 194° |
| 2026-05-04 20:49 | 28.71275 | -13.48315 | 15108 ft | 401 kts | 194° |
| 2026-05-04 20:50 | 28.68516 | -13.48836 | 14585 ft | 398 kts | 195° |
| 2026-05-04 20:50 | 28.65793 | -13.49387 | 14074 ft | 396 kts | 195° |
| 2026-05-04 20:50 | 28.63070 | -13.49974 | 13568 ft | 395 kts | 195° |
| 2026-05-04 20:50 | 28.60423 | -13.50566 | 13063 ft | 391 kts | 195° |
| 2026-05-04 20:51 | 28.57751 | -13.51176 | 12550 ft | 390 kts | 196° |
| 2026-05-04 20:51 | 28.55077 | -13.51794 | 12037 ft | 390 kts | 195° |
| 2026-05-04 20:51 | 28.52419 | -13.52409 | 11520 ft | 389 kts | 195° |
| 2026-05-04 20:51 | 28.49766 | -13.53020 | 11010 ft | 387 kts | 195° |
| 2026-05-04 20:52 | 28.47129 | -13.53626 | 10490 ft | 381 kts | 195° |
| 2026-05-04 20:52 | 28.44600 | -13.54201 | 9953 ft | 361 kts | 195° |
| 2026-05-04 20:52 | 28.42191 | -13.54745 | 9453 ft | 341 kts | 195° |
| 2026-05-04 20:52 | 28.39938 | -13.55255 | 8951 ft | 325 kts | 195° |
| 2026-05-04 20:53 | 28.37753 | -13.55756 | 8401 ft | 313 kts | 195° |
| 2026-05-04 20:53 | 28.35663 | -13.56237 | 7873 ft | 302 kts | 195° |
| 2026-05-04 20:53 | 28.33643 | -13.56703 | 7435 ft | 290 kts | 195° |
| 2026-05-04 20:53 | 28.31731 | -13.57142 | 7271 ft | 270 kts | 194° |
| 2026-05-04 20:54 | 28.29939 | -13.57550 | 7206 ft | 253 kts | 195° |
| 2026-05-04 20:54 | 28.28221 | -13.57947 | 7055 ft | 251 kts | 195° |
| 2026-05-04 20:54 | 28.26514 | -13.58342 | 6928 ft | 248 kts | 194° |
| 2026-05-04 20:54 | 28.24815 | -13.58733 | 6810 ft | 250 kts | 195° |
| 2026-05-04 20:55 | 28.23087 | -13.59092 | 6569 ft | 254 kts | 191° |
| 2026-05-04 20:55 | 28.21343 | -13.59351 | 6348 ft | 250 kts | 189° |
| 2026-05-04 20:55 | 28.19608 | -13.59576 | 6019 ft | 250 kts | 189° |
| 2026-05-04 20:55 | 28.17901 | -13.59803 | 5973 ft | 249 kts | 189° |
| 2026-05-04 20:56 | 28.16169 | -13.60046 | 5971 ft | 251 kts | 190° |
| 2026-05-04 20:56 | 28.14430 | -13.60297 | 5973 ft | 251 kts | 190° |
| 2026-05-04 20:56 | 28.12698 | -13.60564 | 5969 ft | 250 kts | 194° |
| 2026-05-04 20:56 | 28.11158 | -13.61384 | 5842 ft | 246 kts | 227° |
| 2026-05-04 20:57 | 28.10289 | -13.63011 | 5604 ft | 240 kts | 258° |